createdAt,value
2022-11-06T00:00:32.044Z,9.60
2022-11-06T00:03:00.539Z,9.60
2022-11-06T00:05:47.030Z,9.60
2022-11-06T00:08:15.674Z,9.60
2022-11-06T00:10:43.889Z,9.60
2022-11-06T00:13:11.887Z,9.50
2022-11-06T00:15:41.272Z,9.50
2022-11-06T00:18:09.261Z,9.50
2022-11-06T00:20:38.352Z,9.50
2022-11-06T00:23:06.376Z,9.50
2022-11-06T00:25:34.394Z,9.40
2022-11-06T00:28:02.462Z,9.50
2022-11-06T00:30:30.450Z,9.40
2022-11-06T00:33:00.571Z,9.40
2022-11-06T00:35:28.615Z,9.40
2022-11-06T00:37:57.252Z,9.30
2022-11-06T00:40:25.279Z,9.30
2022-11-06T00:42:57.317Z,9.40
2022-11-06T00:45:26.150Z,9.30
2022-11-06T00:47:54.200Z,9.30
2022-11-06T00:50:26.377Z,9.40
2022-11-06T00:52:55.616Z,9.40
2022-11-06T00:55:23.628Z,9.30
2022-11-06T00:57:52.203Z,9.30
2022-11-06T01:00:20.935Z,9.30
2022-11-06T01:02:49.136Z,9.40
2022-11-06T01:05:17.792Z,9.30
2022-11-06T01:07:47.256Z,9.40
2022-11-06T01:10:15.201Z,9.40
2022-11-06T01:12:43.249Z,9.40
2022-11-06T01:15:11.825Z,9.40
2022-11-06T01:17:39.839Z,9.40
2022-11-06T01:20:09.003Z,9.40
2022-11-06T01:22:36.963Z,9.40
2022-11-06T01:25:07.790Z,9.40
2022-11-06T01:27:35.773Z,9.40
2022-11-06T01:30:04.013Z,9.40
2022-11-06T01:32:32.039Z,9.40
2022-11-06T01:35:00.130Z,9.40
2022-11-06T01:37:28.101Z,9.40
2022-11-06T01:39:56.128Z,9.40
2022-11-06T01:42:25.480Z,9.50
2022-11-06T01:45:36.422Z,9.40
2022-11-06T01:48:05.270Z,9.50
2022-11-06T01:50:34.009Z,9.50
2022-11-06T01:53:02.999Z,9.50
2022-11-06T01:55:33.774Z,9.50
2022-11-06T01:58:05.697Z,9.50
2022-11-06T02:00:33.860Z,9.50
2022-11-06T02:03:03.032Z,9.50
2022-11-06T02:05:31.610Z,9.50
2022-11-06T02:08:01.768Z,9.50
2022-11-06T02:10:31.200Z,9.50
2022-11-06T02:13:11.458Z,9.50
2022-11-06T02:15:48.471Z,9.50
2022-11-06T02:18:37.713Z,9.50
2022-11-06T02:21:39.232Z,9.50
2022-11-06T02:24:47.232Z,9.50
2022-11-06T02:27:18.984Z,9.50
2022-11-06T02:29:50.916Z,9.50
2022-11-06T02:32:23.528Z,9.50
2022-11-06T02:34:54.105Z,9.50
2022-11-06T02:37:28.880Z,9.60
2022-11-06T02:40:00.460Z,9.60
2022-11-06T02:42:31.545Z,9.50
2022-11-06T02:45:01.647Z,9.60
2022-11-06T02:47:32.957Z,9.60
2022-11-06T02:50:05.652Z,9.60
2022-11-06T02:52:37.961Z,9.60
2022-11-06T02:55:12.162Z,9.60
2022-11-06T02:57:47.251Z,9.60
2022-11-06T03:00:17.544Z,9.60
2022-11-06T03:02:49.949Z,9.60
2022-11-06T03:05:25.016Z,9.60
2022-11-06T03:07:58.128Z,9.60
2022-11-06T03:10:31.608Z,9.70
2022-11-06T03:13:07.659Z,9.70
2022-11-06T03:15:40.527Z,9.70
2022-11-06T03:18:13.813Z,9.80
2022-11-06T03:20:50.187Z,9.70
2022-11-06T03:23:25.844Z,9.70
2022-11-06T03:25:57.601Z,9.80
2022-11-06T03:28:32.205Z,9.80
2022-11-06T03:31:03.988Z,9.80
2022-11-06T03:33:35.415Z,9.80
2022-11-06T03:36:07.044Z,9.80
2022-11-06T03:38:41.993Z,9.80
2022-11-06T03:41:14.543Z,9.70
2022-11-06T03:43:48.762Z,9.70
2022-11-06T03:46:20.846Z,9.60
2022-11-06T03:48:53.649Z,9.60
2022-11-06T03:51:25.747Z,9.60
2022-11-06T03:53:57.415Z,9.60
2022-11-06T03:56:32.075Z,9.60
2022-11-06T03:59:04.087Z,9.60
2022-11-06T04:01:37.088Z,9.60
2022-11-06T04:04:12.432Z,9.60
2022-11-06T04:06:45.100Z,9.60
2022-11-06T04:09:33.898Z,9.60
2022-11-06T04:12:21.997Z,9.60
2022-11-06T04:14:54.784Z,9.70
2022-11-06T04:17:24.971Z,9.70
2022-11-06T04:19:56.206Z,9.60
2022-11-06T04:22:40.089Z,9.60
2022-11-06T04:25:42.804Z,9.60
2022-11-06T04:28:31.035Z,9.70
2022-11-06T04:31:07.317Z,9.70
2022-11-06T04:33:41.985Z,9.70
2022-11-06T04:36:18.824Z,9.70
2022-11-06T04:38:54.413Z,9.70
2022-11-06T04:41:34.454Z,9.70
2022-11-06T04:44:08.421Z,9.70
2022-11-06T04:46:42.937Z,9.80
2022-11-06T04:49:13.788Z,9.80
2022-11-06T04:51:45.940Z,9.80
2022-11-06T04:54:15.080Z,9.80
2022-11-06T04:56:46.326Z,9.80
2022-11-06T04:59:17.483Z,9.80
2022-11-06T05:01:47.493Z,9.80
2022-11-06T05:04:16.672Z,9.80
2022-11-06T05:06:44.686Z,9.90
2022-11-06T05:09:12.728Z,9.90
2022-11-06T05:11:40.739Z,9.80
2022-11-06T05:14:08.815Z,9.80
2022-11-06T05:16:36.836Z,9.80
2022-11-06T05:19:06.274Z,9.70
2022-11-06T05:21:51.475Z,9.70
2022-11-06T05:24:19.545Z,9.70
2022-11-06T05:26:47.566Z,9.70
2022-11-06T05:29:15.756Z,9.70
2022-11-06T05:31:43.817Z,9.60
2022-11-06T05:34:13.616Z,9.60
2022-11-06T05:36:41.629Z,9.60
2022-11-06T05:39:09.982Z,9.60
2022-11-06T05:41:38.033Z,9.60
2022-11-06T05:44:06.292Z,9.60
2022-11-06T05:46:50.369Z,9.50
2022-11-06T05:49:20.305Z,9.50
2022-11-06T05:51:48.735Z,9.60
2022-11-06T05:54:16.851Z,9.50
2022-11-06T05:56:44.895Z,9.60
2022-11-06T05:59:13.235Z,9.50
2022-11-06T06:01:41.334Z,9.50
2022-11-06T06:04:09.435Z,9.50
2022-11-06T06:06:39.261Z,9.50
2022-11-06T06:09:07.260Z,9.50
2022-11-06T06:11:35.492Z,9.50
2022-11-06T06:14:03.462Z,9.50
2022-11-06T06:16:31.917Z,9.50
2022-11-06T06:18:59.965Z,9.40
2022-11-06T06:21:28.013Z,9.50
2022-11-06T06:23:57.372Z,9.40
2022-11-06T06:26:25.505Z,9.50
2022-11-06T06:28:53.537Z,9.50
2022-11-06T06:31:21.568Z,9.50
2022-11-06T06:33:49.586Z,9.50
2022-11-06T06:36:17.885Z,9.40
2022-11-06T06:38:45.878Z,9.40
2022-11-06T06:41:15.231Z,9.40
2022-11-06T06:43:43.409Z,9.30
2022-11-06T06:46:11.954Z,9.40
2022-11-06T06:48:40.056Z,9.40
2022-11-06T06:51:08.807Z,9.40
2022-11-06T06:53:37.147Z,9.40
2022-11-06T06:56:05.899Z,9.40
2022-11-06T06:58:35.611Z,9.30
2022-11-06T07:01:05.877Z,9.40
2022-11-06T07:03:33.957Z,9.40
2022-11-06T07:06:02.071Z,9.40
2022-11-06T07:08:30.938Z,9.40
2022-11-06T07:11:01.796Z,9.40
2022-11-06T07:13:35.591Z,9.40
2022-11-06T07:16:06.086Z,9.40
2022-11-06T07:18:34.178Z,9.40
2022-11-06T07:21:02.231Z,9.40
2022-11-06T07:23:30.244Z,9.40
2022-11-06T07:25:58.448Z,9.40
2022-11-06T07:28:26.508Z,9.40
2022-11-06T07:30:58.344Z,9.40
2022-11-06T07:33:28.355Z,9.40
2022-11-06T07:35:56.717Z,9.40
2022-11-06T07:38:24.709Z,9.40
2022-11-06T07:40:53.759Z,9.40
2022-11-06T07:43:21.865Z,9.40
2022-11-06T07:45:49.948Z,9.40
2022-11-06T07:48:17.992Z,9.50
2022-11-06T07:50:47.303Z,9.40
2022-11-06T07:53:15.595Z,9.40
2022-11-06T07:55:49.623Z,9.40
2022-11-06T07:58:18.128Z,9.40
2022-11-06T08:00:48.636Z,9.40
2022-11-06T08:03:17.463Z,9.40
2022-11-06T08:05:47.235Z,9.50
2022-11-06T08:08:15.722Z,9.50
2022-11-06T08:10:44.569Z,9.50
2022-11-06T08:13:13.947Z,9.50
2022-11-06T08:15:42.889Z,9.50
2022-11-06T08:18:12.695Z,9.50
2022-11-06T08:20:41.448Z,9.50
2022-11-06T08:23:13.598Z,9.60
2022-11-06T08:25:42.089Z,9.60
2022-11-06T08:28:11.133Z,9.60
2022-11-06T08:30:39.299Z,9.70
2022-11-06T08:33:09.105Z,9.70
2022-11-06T08:35:37.461Z,9.70
2022-11-06T08:38:05.942Z,9.70
2022-11-06T08:40:37.514Z,9.70
2022-11-06T08:43:08.969Z,9.80
2022-11-06T08:45:39.039Z,9.80
2022-11-06T08:48:08.303Z,9.80
2022-11-06T08:50:37.921Z,9.90
2022-11-06T08:53:06.832Z,9.90
2022-11-06T08:55:38.257Z,10.00
2022-11-06T08:58:07.177Z,10.10
2022-11-06T09:00:35.658Z,10.20
2022-11-06T09:03:06.613Z,10.20
2022-11-06T09:05:34.888Z,10.30
2022-11-06T09:08:03.240Z,10.40
2022-11-06T09:10:31.228Z,10.60
2022-11-06T09:13:01.225Z,10.60
2022-11-06T09:15:29.224Z,10.70
2022-11-06T09:17:57.491Z,10.80
2022-11-06T09:20:26.802Z,10.90
2022-11-06T09:22:55.350Z,11.00
2022-11-06T09:25:23.420Z,11.00
2022-11-06T09:27:58.601Z,11.00
2022-11-06T09:30:30.392Z,11.00
2022-11-06T09:33:00.050Z,11.30
2022-11-06T09:35:30.029Z,11.50
2022-11-06T09:38:03.283Z,11.80
2022-11-06T09:40:34.900Z,12.10
2022-11-06T09:43:31.749Z,12.50
2022-11-06T09:46:21.398Z,12.80
2022-11-06T09:48:54.584Z,13.10
2022-11-06T09:51:37.348Z,13.30
2022-11-06T09:54:13.113Z,13.70
2022-11-06T09:56:42.820Z,13.80
2022-11-06T09:59:14.859Z,13.60
2022-11-06T10:01:48.488Z,13.40
2022-11-06T10:04:26.652Z,13.10
2022-11-06T10:06:54.837Z,12.90
2022-11-06T10:09:22.860Z,12.80
2022-11-06T10:11:57.120Z,12.80
2022-11-06T10:14:38.399Z,12.80
2022-11-06T10:17:16.792Z,12.70
2022-11-06T10:19:50.320Z,12.70
2022-11-06T10:22:25.305Z,12.60
2022-11-06T10:25:01.150Z,12.60
2022-11-06T10:27:37.977Z,12.60
2022-11-06T10:30:11.404Z,12.60
2022-11-06T10:33:00.750Z,12.70
2022-11-06T10:35:35.518Z,12.70
2022-11-06T10:38:12.281Z,12.80
2022-11-06T10:40:41.062Z,12.90
2022-11-06T10:43:22.797Z,13.00
2022-11-06T10:45:57.888Z,13.00
2022-11-06T10:48:33.257Z,13.00
2022-11-06T10:51:19.057Z,13.20
2022-11-06T10:53:59.094Z,13.30
2022-11-06T10:56:40.842Z,13.70
2022-11-06T10:59:09.122Z,13.50
2022-11-06T11:01:38.528Z,13.40
2022-11-06T11:04:07.991Z,13.40
2022-11-06T11:06:36.045Z,13.30
2022-11-06T11:09:24.044Z,13.40
2022-11-06T11:11:52.047Z,13.80
2022-11-06T11:14:24.903Z,14.20
2022-11-06T11:16:53.432Z,14.60
2022-11-06T11:19:33.779Z,14.70
2022-11-06T11:22:03.491Z,14.50
2022-11-06T11:24:32.089Z,14.50
2022-11-06T11:27:02.237Z,14.40
2022-11-06T11:29:33.025Z,14.30
2022-11-06T11:32:03.780Z,14.20
2022-11-06T11:34:36.672Z,14.30
2022-11-06T11:37:08.095Z,14.20
2022-11-06T11:39:38.157Z,14.10
2022-11-06T11:42:26.934Z,13.90
2022-11-06T11:45:16.846Z,13.90
2022-11-06T11:47:47.296Z,13.90
2022-11-06T11:50:29.213Z,13.90
2022-11-06T11:53:05.617Z,13.70
2022-11-06T11:55:41.580Z,13.60
2022-11-06T11:58:20.698Z,13.60
2022-11-06T12:00:57.582Z,13.60
2022-11-06T12:03:28.927Z,13.50
2022-11-06T12:06:09.065Z,13.40
2022-11-06T12:08:39.681Z,13.40
2022-11-06T12:11:08.827Z,13.40
2022-11-06T12:13:36.874Z,13.40
2022-11-06T12:16:09.177Z,13.30
2022-11-06T12:18:42.041Z,13.30
2022-11-06T12:21:16.269Z,13.30
2022-11-06T12:23:48.372Z,13.10
2022-11-06T12:26:26.942Z,13.10
2022-11-06T12:29:04.654Z,12.90
2022-11-06T12:31:38.885Z,12.90
2022-11-06T12:34:17.441Z,12.90
2022-11-06T12:37:05.364Z,13.00
2022-11-06T12:39:38.433Z,13.10
2022-11-06T12:42:08.279Z,13.20
2022-11-06T12:44:36.501Z,13.20
2022-11-06T12:47:14.513Z,13.20
2022-11-06T12:50:19.040Z,13.20
2022-11-06T12:53:08.394Z,13.30
2022-11-06T12:55:41.773Z,13.40
2022-11-06T12:58:35.244Z,13.60
2022-11-06T13:01:10.292Z,13.60
2022-11-06T13:04:14.866Z,13.70
2022-11-06T13:07:16.246Z,13.80
2022-11-06T13:09:52.335Z,14.00
2022-11-06T13:12:25.700Z,14.10
2022-11-06T13:15:10.485Z,14.10
2022-11-06T13:17:43.185Z,14.20
2022-11-06T13:20:17.812Z,14.20
2022-11-06T13:22:52.845Z,14.20
2022-11-06T13:25:27.348Z,14.10
2022-11-06T13:28:00.704Z,14.20
2022-11-06T13:30:29.684Z,14.10
2022-11-06T13:33:19.560Z,14.00
2022-11-06T13:35:48.247Z,14.00
2022-11-06T13:38:21.825Z,14.00
2022-11-06T13:40:57.152Z,13.90
2022-11-06T13:43:34.942Z,13.80
2022-11-06T13:46:09.895Z,13.60
2022-11-06T13:48:46.830Z,13.50
2022-11-06T13:51:22.152Z,13.40
2022-11-06T13:54:00.199Z,13.40
2022-11-06T13:57:06.877Z,13.40
2022-11-06T13:59:53.752Z,13.40
2022-11-06T14:02:40.669Z,13.30
2022-11-06T14:05:43.787Z,13.30
2022-11-06T14:08:18.313Z,13.30
2022-11-06T14:10:55.458Z,13.30
2022-11-06T14:13:34.097Z,13.30
2022-11-06T14:16:22.202Z,13.10
2022-11-06T14:18:59.907Z,13.10
2022-11-06T14:21:44.604Z,13.10
2022-11-06T14:24:32.084Z,13.10
2022-11-06T14:27:02.460Z,13.20
2022-11-06T14:30:01.037Z,13.10
2022-11-06T14:32:44.465Z,13.00
2022-11-06T14:35:52.629Z,13.00
2022-11-06T14:38:38.600Z,12.90
2022-11-06T14:41:50.190Z,12.80
2022-11-06T14:44:47.126Z,12.80
2022-11-06T14:47:27.110Z,12.70
2022-11-06T14:49:58.488Z,12.70
2022-11-06T14:52:27.735Z,12.60
2022-11-06T14:55:04.839Z,12.60
2022-11-06T14:57:42.323Z,12.50
2022-11-06T15:00:15.092Z,12.50
2022-11-06T15:02:45.411Z,12.40
2022-11-06T15:05:17.722Z,12.40
2022-11-06T15:08:05.007Z,12.40
2022-11-06T15:10:54.467Z,12.30
2022-11-06T15:13:33.008Z,12.30
2022-11-06T15:16:11.547Z,12.20
2022-11-06T15:18:48.178Z,12.20
2022-11-06T15:21:23.437Z,12.30
2022-11-06T15:24:02.766Z,12.20
2022-11-06T15:26:34.918Z,12.20
2022-11-06T15:29:18.165Z,12.10
2022-11-06T15:31:49.059Z,12.10
2022-11-06T15:34:24.800Z,12.10
2022-11-06T15:36:56.195Z,12.10
2022-11-06T15:39:39.499Z,12.00
2022-11-06T15:42:09.491Z,12.00
2022-11-06T15:44:41.823Z,12.00
2022-11-06T15:47:21.376Z,12.00
2022-11-06T15:50:11.986Z,11.90
2022-11-06T15:52:40.092Z,11.80
2022-11-06T15:55:13.226Z,11.80
2022-11-06T15:57:42.024Z,11.80
2022-11-06T16:00:17.475Z,11.80
2022-11-06T16:02:49.905Z,11.80
2022-11-06T16:05:21.416Z,11.80
2022-11-06T16:07:51.066Z,11.80
2022-11-06T16:10:21.495Z,11.70
2022-11-06T16:12:51.039Z,11.70
2022-11-06T16:15:46.748Z,11.70
2022-11-06T16:18:17.749Z,11.70
2022-11-06T16:20:49.715Z,11.70
2022-11-06T16:23:24.326Z,11.60
2022-11-06T16:26:03.667Z,11.60
2022-11-06T16:28:32.806Z,11.60
2022-11-06T16:31:09.472Z,11.60
2022-11-06T16:33:37.528Z,11.60
2022-11-06T16:36:14.517Z,11.60
2022-11-06T16:38:44.778Z,11.50
2022-11-06T16:41:34.529Z,11.50
2022-11-06T16:44:27.864Z,11.50
2022-11-06T16:47:16.735Z,11.50
2022-11-06T16:49:51.808Z,11.50
2022-11-06T16:52:26.713Z,11.50
2022-11-06T16:54:58.535Z,11.40
2022-11-06T16:57:28.706Z,11.40
2022-11-06T16:59:59.735Z,11.40
2022-11-06T17:02:30.811Z,11.40
2022-11-06T17:05:16.633Z,11.30
2022-11-06T17:07:46.888Z,11.30
2022-11-06T17:10:38.245Z,11.30
2022-11-06T17:13:19.840Z,11.30
2022-11-06T17:15:49.300Z,11.30
2022-11-06T17:18:19.981Z,11.30
2022-11-06T17:20:52.267Z,11.30
2022-11-06T17:23:22.992Z,11.30
2022-11-06T17:25:53.849Z,11.30
2022-11-06T17:28:22.711Z,11.20
2022-11-06T17:30:51.301Z,11.20
2022-11-06T17:33:19.366Z,11.20
2022-11-06T17:35:49.317Z,11.20
2022-11-06T17:38:18.183Z,11.20
2022-11-06T17:40:47.745Z,11.10
2022-11-06T17:43:16.367Z,11.10
2022-11-06T17:45:47.822Z,11.10
2022-11-06T17:48:15.892Z,11.10
2022-11-06T17:51:01.417Z,11.10
2022-11-06T17:53:29.496Z,11.00
2022-11-06T17:55:58.856Z,11.10
2022-11-06T17:58:26.883Z,11.00
2022-11-06T18:00:56.770Z,11.10
2022-11-06T18:03:24.951Z,11.00
2022-11-06T18:05:53.130Z,11.00
2022-11-06T18:08:21.108Z,11.00
2022-11-06T18:10:55.667Z,11.00
2022-11-06T18:13:25.065Z,11.00
2022-11-06T18:15:53.451Z,11.00
2022-11-06T18:18:21.529Z,11.00
2022-11-06T18:20:50.052Z,11.00
2022-11-06T18:23:18.739Z,11.00
2022-11-06T18:25:55.728Z,11.00
2022-11-06T18:28:25.896Z,11.00
2022-11-06T18:30:54.212Z,11.00
2022-11-06T18:33:22.324Z,10.90
2022-11-06T18:35:50.346Z,10.90
2022-11-06T18:38:18.748Z,10.90
2022-11-06T18:40:51.352Z,11.00
2022-11-06T18:43:20.082Z,10.90
2022-11-06T18:45:49.759Z,10.90
2022-11-06T18:48:21.394Z,10.90
2022-11-06T18:50:50.303Z,10.90
2022-11-06T18:53:18.303Z,10.90
2022-11-06T18:55:46.990Z,10.90
2022-11-06T18:58:15.740Z,10.90
2022-11-06T19:00:44.014Z,10.90
2022-11-06T19:03:13.824Z,10.90
2022-11-06T19:05:48.004Z,10.90
2022-11-06T19:08:16.464Z,10.90
2022-11-06T19:10:44.793Z,10.90
2022-11-06T19:13:12.938Z,10.80
2022-11-06T19:15:41.024Z,10.80
2022-11-06T19:18:09.711Z,10.80
2022-11-06T19:20:41.767Z,10.80
2022-11-06T19:23:10.210Z,10.80
2022-11-06T19:25:41.063Z,10.80
2022-11-06T19:28:09.441Z,10.80
2022-11-06T19:30:37.820Z,10.80
2022-11-06T19:33:06.276Z,10.80
2022-11-06T19:35:34.842Z,10.80
2022-11-06T19:38:04.809Z,10.80
2022-11-06T19:40:33.634Z,10.80
2022-11-06T19:43:03.815Z,10.80
2022-11-06T19:45:31.879Z,10.80
2022-11-06T19:48:00.938Z,10.80
2022-11-06T19:50:58.177Z,10.80
2022-11-06T19:53:23.288Z,10.80
2022-11-06T19:55:51.644Z,10.80
2022-11-06T19:58:21.601Z,10.70
2022-11-06T20:00:49.627Z,10.60
2022-11-06T20:03:17.908Z,10.60
2022-11-06T20:05:46.434Z,10.50
2022-11-06T20:08:14.623Z,10.50
2022-11-06T20:10:44.237Z,10.50
2022-11-06T20:13:12.504Z,10.40
2022-11-06T20:15:40.745Z,10.40
2022-11-06T20:18:09.311Z,10.40
2022-11-06T20:20:37.396Z,10.40
2022-11-06T20:23:05.418Z,10.40
2022-11-06T20:25:33.437Z,10.30
2022-11-06T20:28:02.781Z,10.30
2022-11-06T20:30:30.816Z,10.20
2022-11-06T20:32:58.824Z,10.20
2022-11-06T20:35:27.164Z,10.20
2022-11-06T20:37:55.155Z,10.10
2022-11-06T20:40:23.123Z,10.00
2022-11-06T20:42:51.101Z,10.10
2022-11-06T20:45:20.575Z,10.00
2022-11-06T20:47:48.574Z,10.00
2022-11-06T20:50:16.658Z,10.00
2022-11-06T20:52:44.650Z,9.90
2022-11-06T20:55:12.716Z,9.90
2022-11-06T20:57:41.261Z,9.90
2022-11-06T21:00:10.524Z,9.90
2022-11-06T21:02:40.361Z,9.90
2022-11-06T21:05:09.195Z,9.80
2022-11-06T21:07:37.224Z,9.80
2022-11-06T21:10:05.900Z,9.80
2022-11-06T21:12:34.358Z,9.80
2022-11-06T21:15:02.341Z,9.80
2022-11-06T21:17:30.416Z,9.70
2022-11-06T21:19:59.973Z,9.70
2022-11-06T21:22:27.962Z,9.70
2022-11-06T21:24:56.149Z,9.70
2022-11-06T21:27:24.196Z,9.70
2022-11-06T21:29:52.183Z,9.70
2022-11-06T21:32:20.191Z,9.60
2022-11-06T21:34:48.181Z,9.60
2022-11-06T21:37:17.542Z,9.60
2022-11-06T21:39:45.658Z,9.60
2022-11-06T21:42:13.688Z,9.60
2022-11-06T21:44:42.118Z,9.60
2022-11-06T21:47:10.113Z,9.50
2022-11-06T21:49:38.067Z,9.50
2022-11-06T21:52:21.984Z,9.50
2022-11-06T21:55:14.410Z,9.50
2022-11-06T21:57:42.408Z,9.50
2022-11-06T22:00:14.428Z,9.50
2022-11-06T22:02:43.396Z,9.50
2022-11-06T22:05:11.979Z,9.50
2022-11-06T22:07:40.373Z,9.40
2022-11-06T22:10:10.896Z,9.40
2022-11-06T22:12:39.201Z,9.40
2022-11-06T22:15:08.889Z,9.50
2022-11-06T22:17:37.280Z,9.40
2022-11-06T22:20:06.435Z,9.40
2022-11-06T22:22:34.661Z,9.50
2022-11-06T22:25:03.119Z,9.50
2022-11-06T22:27:35.654Z,9.40
2022-11-06T22:30:09.156Z,9.40
2022-11-06T22:32:37.383Z,9.40
2022-11-06T22:35:06.274Z,9.50
2022-11-06T22:37:34.593Z,9.40
2022-11-06T22:40:02.906Z,9.50
2022-11-06T22:42:32.897Z,9.50
2022-11-06T22:45:01.419Z,9.50
2022-11-06T22:47:29.794Z,9.50
2022-11-06T22:49:58.203Z,9.50
2022-11-06T22:52:26.568Z,9.50
2022-11-06T22:54:54.943Z,9.50
2022-11-06T22:57:23.360Z,9.50
2022-11-06T22:59:53.047Z,9.50
2022-11-06T23:02:21.517Z,9.60
2022-11-06T23:04:50.078Z,9.60
2022-11-06T23:07:18.373Z,9.60
2022-11-06T23:09:46.825Z,9.60
2022-11-06T23:12:15.853Z,9.60
2022-11-06T23:14:44.268Z,9.70
2022-11-06T23:17:14.029Z,9.60
2022-11-06T23:19:42.362Z,9.70
2022-11-06T23:22:27.958Z,9.60
2022-11-06T23:24:56.159Z,9.70
2022-11-06T23:27:25.721Z,9.70
2022-11-06T23:29:54.200Z,9.70
2022-11-06T23:32:23.958Z,9.70
2022-11-06T23:34:53.790Z,9.80
2022-11-06T23:37:22.240Z,9.70
2022-11-06T23:39:50.424Z,9.80
2022-11-06T23:42:20.458Z,9.80
2022-11-06T23:45:06.890Z,9.80
2022-11-06T23:47:37.281Z,9.80
2022-11-06T23:50:06.864Z,9.80
2022-11-06T23:52:35.483Z,9.90
2022-11-06T23:55:03.909Z,9.90
2022-11-06T23:57:32.792Z,9.90
